Time;durP1;ratioP1;P1;durP2;ratioP2;P2;SDS_P1;SDS_P2;PMS_P1;PMS_P2;Temp;Humidity;BMP_temperature;BMP_pressure;BME280_temperature;BME280_humidity;BME280_pressure;Samples;Min_cycle;Max_cycle;Signal;HPM_P1;HPM_P2
2022/11/17 00:01:19;;;;;;;7.28;3.20;;;8.30;99.90;;;7.67;100.00;95510.38;4959063;28;20857;-45
2022/11/17 00:03:49;;;;;;;4.30;2.97;;;8.30;99.90;;;7.68;100.00;95517.31;4952714;28;20038;-45
2022/11/17 00:06:19;;;;;;;4.28;2.63;;;8.30;99.90;;;7.49;100.00;95479.00;4959280;28;20540;-45
2022/11/17 00:08:45;;;;;;;4.78;3.20;;;8.30;99.90;;;7.68;100.00;95505.06;4962489;28;20093;-44
2022/11/17 00:11:10;;;;;;;5.32;3.10;;;8.30;99.90;;;7.62;100.00;95493.09;4955071;28;20070;-48
2022/11/17 00:16:21;;;;;;;4.63;2.50;;;8.30;99.90;;;7.61;100.00;95491.44;4966993;28;20117;-48
2022/11/17 00:21:32;;;;;;;5.70;2.70;;;8.30;99.90;;;7.57;100.00;95476.81;4974800;28;20057;-45
2022/11/17 00:23:58;;;;;;;5.40;2.58;;;8.20;99.90;;;7.58;100.00;95488.13;4972904;28;20372;-45
2022/11/17 00:26:28;;;;;;;6.93;3.30;;;8.20;99.90;;;7.55;100.00;95490.91;4970697;28;20277;-45
2022/11/17 00:29:00;;;;;;;4.13;2.80;;;8.20;99.90;;;7.54;100.00;95499.72;4972421;28;20504;-44
2022/11/17 00:34:16;;;;;;;4.30;2.72;;;8.20;99.90;;;7.56;100.00;95500.50;4959021;28;20045;-45
2022/11/17 00:36:51;;;;;;;4.88;2.67;;;8.20;99.90;;;7.59;100.00;95500.31;4958583;28;20034;-45
2022/11/17 00:39:20;;;;;;;4.88;2.50;;;8.30;99.90;;;7.61;100.00;95488.81;4977121;28;20034;-45
2022/11/17 00:41:45;;;;;;;3.38;2.50;;;8.30;99.90;;;7.62;100.00;95487.84;4965657;28;20033;-45
2022/11/17 00:44:12;;;;;;;4.47;2.50;;;8.30;99.90;;;7.64;100.00;95487.78;4962734;28;20039;-46
2022/11/17 00:46:38;;;;;;;5.47;2.72;;;8.30;99.90;;;7.68;100.00;95489.31;4964097;28;20412;-44
2022/11/17 00:49:05;;;;;;;3.25;2.25;;;8.30;99.90;;;7.69;100.00;95492.78;4958320;28;20062;-45
2022/11/17 00:51:32;;;;;;;3.80;2.53;;;8.30;99.90;;;7.65;100.00;95477.19;4967866;28;20074;-45
2022/11/17 00:53:57;;;;;;;3.20;2.40;;;8.40;99.90;;;7.70;100.00;95479.59;4955228;28;20035;-47
2022/11/17 00:56:24;;;;;;;5.50;2.80;;;8.40;99.90;;;7.71;100.00;95470.75;4960701;28;20038;-48
2022/11/17 00:58:50;;;;;;;6.07;3.05;;;8.40;99.90;;;7.71;100.00;95459.44;4963656;28;20030;-45
2022/11/17 01:01:16;;;;;;;7.53;2.90;;;8.30;99.90;;;7.74;100.00;95460.09;4963182;28;20031;-45
2022/11/17 01:03:42;;;;;;;5.07;2.53;;;8.30;99.90;;;7.72;100.00;95448.84;4960131;28;20065;-48
2022/11/17 01:06:14;;;;;;;4.03;2.28;;;8.40;99.90;;;7.73;100.00;95449.69;4956453;28;20038;-45
2022/11/17 01:08:40;;;;;;;4.10;2.40;;;8.40;99.90;;;7.77;100.00;95462.56;4959692;28;20648;-45
2022/11/17 01:11:18;;;;;;;5.65;2.90;;;8.40;99.90;;;7.77;100.00;95454.69;4964193;28;20476;-46
2022/11/17 01:13:46;;;;;;;3.83;2.42;;;8.40;99.90;;;7.79;100.00;95446.72;4953621;28;20071;-44
2022/11/17 01:16:17;;;;;;;4.75;2.45;;;8.40;99.90;;;7.81;100.00;95437.00;4962598;28;20022;-45
2022/11/17 01:18:45;;;;;;;5.10;3.22;;;8.40;99.90;;;7.77;100.00;95423.19;4958435;28;20066;-46
2022/11/17 01:21:15;;;;;;;5.57;3.15;;;8.40;99.90;;;7.77;100.00;95411.84;4956908;28;20082;-46
2022/11/17 01:23:43;;;;;;;4.25;2.80;;;8.40;99.90;;;7.77;100.00;95409.22;4963691;28;20053;-45
2022/11/17 01:26:13;;;;;;;4.10;2.50;;;8.40;99.90;;;7.74;100.00;95412.88;4965111;28;20034;-46
2022/11/17 01:28:40;;;;;;;6.03;2.80;;;8.40;99.90;;;7.73;100.00;95405.09;4975772;28;20034;-45
2022/11/17 01:31:10;;;;;;;3.80;2.33;;;8.40;99.90;;;7.72;100.00;95403.41;4963870;28;20038;-45
2022/11/17 01:33:36;;;;;;;3.78;3.00;;;8.40;99.90;;;7.67;100.00;95406.28;4961343;28;20278;-47
2022/11/17 01:36:06;;;;;;;7.90;2.97;;;8.30;99.90;;;7.68;100.00;95392.25;4973682;28;20092;-46
2022/11/17 01:38:32;;;;;;;4.38;2.92;;;8.30;99.90;;;7.65;100.00;95388.00;4969867;28;20042;-44
2022/11/17 01:41:01;;;;;;;5.90;2.75;;;8.30;99.90;;;7.68;100.00;95402.75;4968272;28;20050;-47
2022/11/17 01:43:47;;;;;;;6.28;3.13;;;8.40;99.90;;;7.66;100.00;95391.47;4968054;28;20558;-45
2022/11/17 01:46:34;;;;;;;4.97;2.90;;;8.30;99.90;;;7.67;100.00;95381.84;4969574;28;20473;-46
2022/11/17 01:49:06;;;;;;;4.72;2.90;;;8.30;99.90;;;7.67;100.00;95374.81;4971010;28;20037;-45
2022/11/17 01:51:35;;;;;;;5.17;2.77;;;8.30;99.90;;;7.64;100.00;95359.25;4969138;28;20050;-47
2022/11/17 01:54:02;;;;;;;5.38;3.10;;;8.30;99.90;;;7.66;100.00;95370.47;4951333;28;20382;-45
2022/11/17 01:56:37;;;;;;;4.35;2.80;;;8.30;99.90;;;7.61;100.00;95367.31;4971286;28;20034;-46
2022/11/17 01:59:32;;;;;;;5.53;3.15;;;8.30;99.90;;;7.65;100.00;95355.69;4969242;28;20034;-45
2022/11/17 02:01:58;;;;;;;3.35;2.42;;;8.30;99.90;;;7.66;100.00;95349.50;4968994;28;20056;-46
2022/11/17 02:04:32;;;;;;;6.47;2.83;;;8.30;99.90;;;7.56;100.00;95320.34;4964194;28;20540;-44
2022/11/17 02:07:16;;;;;;;3.53;2.50;;;8.30;99.90;;;7.68;100.00;95334.53;4959839;28;20061;-44
2022/11/17 02:09:43;;;;;;;4.30;2.70;;;8.30;99.90;;;7.66;100.00;95320.63;4958711;28;20034;-44
2022/11/17 02:12:11;;;;;;;4.43;2.53;;;8.30;99.90;;;7.69;100.00;95319.63;4961814;28;20065;-44
2022/11/17 02:14:38;;;;;;;5.28;2.38;;;8.30;99.90;;;7.64;100.00;95314.63;4974787;28;20169;-45
2022/11/17 02:17:07;;;;;;;3.80;2.65;;;8.30;99.90;;;7.57;100.00;95315.94;4961404;28;20777;-44
2022/11/17 02:19:38;;;;;;;3.78;2.33;;;8.20;99.90;;;7.48;100.00;95311.22;4963482;28;20030;-46
2022/11/17 02:22:25;;;;;;;4.60;2.60;;;8.10;99.90;;;7.37;100.00;95309.22;4965095;28;20073;-44
2022/11/17 02:25:27;;;;;;;4.32;2.63;;;8.00;99.90;;;7.23;100.00;95300.38;4960902;28;20026;-45
2022/11/17 02:28:14;;;;;;;4.28;2.67;;;7.90;99.90;;;7.05;100.00;95276.06;4962758;28;20041;-44
2022/11/17 02:31:07;;;;;;;5.55;2.70;;;7.80;99.90;;;6.99;100.00;95284.25;4964136;28;20046;-44
2022/11/17 02:33:50;;;;;;;8.40;3.00;;;7.70;99.90;;;6.88;100.00;95286.66;4964774;28;20085;-44
2022/11/17 02:36:19;;;;;;;3.72;2.28;;;7.60;99.90;;;6.78;100.00;95269.75;4981836;28;20048;-45
2022/11/17 02:39:19;;;;;;;7.30;2.72;;;7.50;99.90;;;6.64;100.00;95279.22;4965475;28;20075;-45
2022/11/17 02:42:09;;;;;;;4.75;2.45;;;7.40;99.90;;;6.56;100.00;95263.09;4966421;28;20037;-45
2022/11/17 02:44:56;;;;;;;6.55;3.05;;;7.30;99.90;;;6.49;100.00;95240.78;4960374;28;20042;-44
2022/11/17 02:47:28;;;;;;;4.63;2.97;;;7.20;99.90;;;6.44;100.00;95220.13;4964198;28;20035;-46
2022/11/17 02:50:02;;;;;;;4.55;2.90;;;7.10;99.90;;;6.38;100.00;95219.59;4961789;28;20039;-45
2022/11/17 02:52:29;;;;;;;5.15;2.92;;;7.00;99.90;;;6.30;100.00;95238.34;4963707;28;20050;-44
2022/11/17 02:55:03;;;;;;;4.45;2.95;;;7.00;99.90;;;6.29;100.00;95229.63;4967116;28;20049;-45
2022/11/17 02:57:35;;;;;;;5.03;2.60;;;7.00;99.90;;;6.29;100.00;95236.66;4965338;28;20045;-45
2022/11/17 03:00:08;;;;;;;4.40;2.55;;;7.00;99.90;;;6.27;100.00;95228.88;4959923;28;20073;-45
2022/11/17 03:02:45;;;;;;;4.32;2.28;;;7.00;99.90;;;6.30;100.00;95231.34;4962288;28;20579;-45
2022/11/17 03:05:32;;;;;;;4.72;2.70;;;7.00;99.90;;;6.36;100.00;95242.41;4957995;28;20081;-44
2022/11/17 03:08:30;;;;;;;6.88;2.75;;;7.10;99.90;;;6.46;100.00;95257.53;4956245;28;20046;-44
2022/11/17 03:10:59;;;;;;;5.22;2.70;;;7.20;99.90;;;6.57;100.00;95258.69;4962147;28;20051;-45
2022/11/17 03:13:54;;;;;;;3.45;2.58;;;7.30;99.90;;;6.78;100.00;95277.59;4967084;28;20174;-45
2022/11/17 03:16:55;;;;;;;4.88;2.42;;;7.40;99.90;;;7.01;100.00;95271.06;4959468;28;20492;-45
2022/11/17 03:19:31;;;;;;;6.88;2.25;;;7.70;99.90;;;7.20;100.00;95261.22;4963568;28;20195;-44
2022/11/17 03:22:21;;;;;;;5.72;2.58;;;7.90;99.90;;;7.39;100.00;95247.03;4964847;28;20863;-43
2022/11/17 03:24:58;;;;;;;5.80;2.50;;;8.00;99.90;;;7.53;100.00;95247.06;4962141;28;20177;-45
2022/11/17 03:27:34;;;;;;;4.90;2.65;;;8.20;99.90;;;7.56;100.00;95241.66;4961737;28;20934;-48
2022/11/17 03:30:08;;;;;;;4.32;2.95;;;8.30;99.90;;;7.61;100.00;95244.84;4960912;28;20716;-46
2022/11/17 03:32:40;;;;;;;4.28;2.40;;;8.30;99.90;;;7.61;100.00;95252.72;4961526;28;20038;-47
2022/11/17 03:35:16;;;;;;;4.65;2.95;;;8.30;99.90;;;7.65;100.00;95248.13;4959400;28;20059;-46
2022/11/17 03:37:51;;;;;;;4.78;2.35;;;8.30;99.90;;;7.67;100.00;95261.16;4961945;28;20494;-45
2022/11/17 03:40:22;;;;;;;3.53;2.42;;;8.30;99.90;;;7.66;100.00;95249.81;4992174;23;20088;-59
2022/11/17 03:42:52;;;;;;;4.20;2.53;;;8.30;99.90;;;7.68;100.00;95247.09;4962806;28;20037;-59
2022/11/17 03:45:20;;;;;;;4.57;2.72;;;8.30;99.90;;;7.70;100.00;95253.09;4961213;28;20401;-58
2022/11/17 03:47:51;;;;;;;4.80;2.55;;;8.40;99.90;;;7.72;100.00;95238.97;4959241;28;20042;-59
2022/11/17 03:50:43;;;;;;;3.88;2.25;;;8.40;99.90;;;7.72;100.00;95240.75;4949498;28;20035;-59
2022/11/17 03:53:09;;;;;;;5.38;2.35;;;8.40;99.90;;;7.75;100.00;95230.91;4942417;28;20113;-59
2022/11/17 03:55:57;;;;;;;5.00;2.60;;;8.40;99.90;;;7.75;100.00;95241.41;4945461;28;20066;-57
2022/11/17 03:58:29;;;;;;;5.28;2.60;;;8.40;99.90;;;7.76;100.00;95248.34;4953403;28;20027;-57
2022/11/17 04:00:57;;;;;;;4.60;2.35;;;8.40;99.90;;;7.74;100.00;95241.50;4949490;28;20121;-57
2022/11/17 04:03:28;;;;;;;3.40;2.00;;;8.40;99.90;;;7.73;100.00;95240.63;4949014;28;20500;-57
2022/11/17 04:05:54;;;;;;;4.85;2.35;;;8.40;99.90;;;7.74;100.00;95231.00;4948026;28;20312;-57
2022/11/17 04:08:22;;;;;;;4.40;2.00;;;8.40;99.90;;;7.70;100.00;95235.59;4948736;28;20860;-57
2022/11/17 04:16:16;;;;;;;3.90;2.70;;;8.30;99.90;;;7.67;100.00;95221.81;4943762;28;20601;-57
2022/11/17 04:18:42;;;;;;;4.15;2.30;;;8.30;99.90;;;7.66;100.00;95231.44;4948103;28;20038;-57
2022/11/17 04:21:08;;;;;;;3.58;2.30;;;8.30;99.90;;;7.72;100.00;95235.50;4950192;28;20058;-57
2022/11/17 04:23:33;;;;;;;3.53;2.00;;;8.30;99.90;;;7.72;100.00;95233.72;4945609;28;20516;-56
2022/11/17 04:28:47;;;;;;;3.17;2.25;;;8.40;99.90;;;7.72;100.00;95225.00;4950575;28;20057;-56
2022/11/17 04:31:20;;;;;;;2.20;1.88;;;8.40;99.90;;;7.73;100.00;95224.91;4950515;28;21845;-57
2022/11/17 04:33:52;;;;;;;4.90;2.03;;;8.40;99.90;;;7.76;100.00;95221.25;4943391;28;20415;-57
2022/11/17 04:36:20;;;;;;;4.13;2.28;;;8.40;99.90;;;7.79;100.00;95216.66;4939359;28;20437;-57
2022/11/17 04:38:50;;;;;;;4.05;2.40;;;8.50;99.90;;;7.81;100.00;95209.53;4941269;28;20364;-57
2022/11/17 04:44:04;;;;;;;4.63;2.15;;;8.50;99.90;;;7.88;100.00;95212.66;4943926;28;20051;-57
2022/11/17 04:46:32;;;;;;;3.45;2.00;;;8.50;99.90;;;7.89;100.00;95218.72;4946987;28;20043;-57
2022/11/17 04:48:58;;;;;;;5.00;1.73;;;8.60;99.90;;;7.90;100.00;95217.81;4943189;28;20049;-57
2022/11/17 04:51:26;;;;;;;2.70;2.08;;;8.50;99.90;;;7.90;100.00;95212.56;4943083;28;20039;-57
2022/11/17 04:53:52;;;;;;;2.80;2.03;;;8.60;99.90;;;7.94;100.00;95224.53;4939613;28;20480;-57
2022/11/17 04:56:19;;;;;;;3.33;2.20;;;8.60;99.90;;;7.94;100.00;95227.16;4942021;28;20031;-57
2022/11/17 04:58:45;;;;;;;3.58;2.03;;;8.60;99.90;;;7.95;100.00;95227.09;4943835;28;20314;-57
2022/11/17 05:01:11;;;;;;;3.28;2.10;;;8.60;99.90;;;7.97;100.00;95224.38;4940294;28;20054;-57
2022/11/17 05:03:45;;;;;;;2.67;1.77;;;8.60;99.90;;;7.97;100.00;95211.25;4938448;28;20125;-57
2022/11/17 05:06:18;;;;;;;3.53;1.95;;;8.60;99.90;;;7.95;100.00;95203.47;4940776;28;20038;-57
2022/11/17 05:08:45;;;;;;;3.15;2.15;;;8.60;99.90;;;7.82;100.00;95194.63;4944055;28;20027;-57
2022/11/17 05:13:58;;;;;;;5.65;2.60;;;8.50;99.90;;;7.83;100.00;95226.03;4941769;28;20548;-57
2022/11/17 05:19:16;;;;;;;4.72;2.70;;;8.40;99.90;;;7.74;100.00;95239.72;4943891;28;20465;-57
2022/11/17 05:21:42;;;;;;;3.45;2.20;;;8.40;99.90;;;7.70;100.00;95232.09;4952401;28;20035;-57
2022/11/17 05:24:08;;;;;;;3.22;2.13;;;8.30;99.90;;;7.62;100.00;95235.19;4946946;28;20031;-57
2022/11/17 05:26:36;;;;;;;2.80;2.10;;;8.20;99.90;;;7.53;100.00;95226.09;4951297;28;20034;-57
2022/11/17 05:29:05;;;;;;;3.53;2.35;;;8.10;99.90;;;7.50;100.00;95235.91;4949605;28;20285;-57
2022/11/17 05:31:31;;;;;;;3.47;2.17;;;8.10;99.90;;;7.52;100.00;95234.06;4937194;28;20039;-57
2022/11/17 05:33:57;;;;;;;3.53;2.20;;;8.10;99.90;;;7.53;100.00;95233.97;4940396;28;20035;-57
2022/11/17 05:36:24;;;;;;;3.58;2.38;;;8.20;99.90;;;7.60;100.00;95237.06;4942743;28;20076;-57
2022/11/17 05:38:51;;;;;;;2.97;2.20;;;8.20;99.90;;;7.59;100.00;95238.00;4945030;28;20026;-57
2022/11/17 05:41:18;;;;;;;2.67;2.00;;;8.30;99.90;;;7.64;100.00;95249.06;4945704;28;20112;-57
2022/11/17 05:43:44;;;;;;;2.58;1.75;;;8.30;99.90;;;7.64;100.00;95247.31;4941143;28;20030;-57
2022/11/17 05:46:10;;;;;;;4.78;2.25;;;8.30;99.90;;;7.70;100.00;95242.59;4948337;28;20210;-57
2022/11/17 05:48:38;;;;;;;4.35;2.50;;;8.30;99.90;;;7.71;100.00;95234.63;4946307;28;20129;-57
2022/11/17 05:51:04;;;;;;;3.47;2.00;;;8.40;99.90;;;7.75;100.00;95241.41;4948719;28;20039;-57
2022/11/17 05:53:31;;;;;;;3.45;2.13;;;8.40;99.90;;;7.83;100.00;95241.78;4948296;28;20295;-57
2022/11/17 05:56:36;;;;;;;3.50;2.00;;;8.50;99.90;;;7.80;100.00;95223.59;4947938;28;20026;-56
2022/11/17 05:59:08;;;;;;;3.88;1.90;;;8.50;99.90;;;7.77;100.00;95234.28;4951261;28;20513;-56
2022/11/17 06:01:35;;;;;;;;;;;8.40;99.90;;;7.66;100.00;95244.56;4946308;28;20061;-57
2022/11/17 06:04:03;;;;;;;3.15;1.90;;;8.30;99.90;;;7.59;100.00;95235.38;4944377;28;19914;-57
2022/11/17 06:06:29;;;;;;;3.70;2.25;;;8.20;99.90;;;7.47;100.00;95236.13;4950263;28;20038;-57
2022/11/17 06:08:55;;;;;;;3.55;2.20;;;8.10;99.90;;;7.45;100.00;95237.06;4952517;28;20105;-56
2022/11/17 06:11:21;;;;;;;3.22;2.08;;;8.10;99.90;;;7.49;100.00;95236.88;4952983;28;20481;-57
2022/11/17 06:13:47;;;;;;;2.65;1.83;;;8.10;99.90;;;7.53;100.00;95235.75;4957407;28;20117;-57
2022/11/17 06:16:16;;;;;;;6.65;2.20;;;8.20;99.90;;;7.61;100.00;95238.78;4949946;28;20027;-57
2022/11/17 06:19:18;;;;;;;3.20;1.92;;;8.30;99.90;;;7.72;100.00;95243.38;4935796;28;20355;-57
2022/11/17 06:21:44;;;;;;;3.22;1.80;;;8.30;99.90;;;7.79;100.00;95237.66;4944683;28;20493;-56
2022/11/17 06:24:10;;;;;;;2.78;1.85;;;8.40;99.90;;;7.87;100.00;95229.31;4939558;28;20043;-57
2022/11/17 06:26:36;;;;;;;4.22;1.88;;;8.50;99.90;;;7.89;100.00;95232.69;4935594;28;20045;-57
2022/11/17 06:29:03;;;;;;;2.60;1.80;;;8.50;99.90;;;7.83;100.00;95241.78;4941548;28;21803;-57
2022/11/17 06:31:31;;;;;;;3.58;1.60;;;8.50;99.90;;;7.78;100.00;95235.13;4937344;28;20568;-57
2022/11/17 06:34:01;;;;;;;3.10;1.88;;;8.40;99.90;;;7.71;100.00;95237.25;4936582;28;20038;-59
2022/11/17 06:36:28;;;;;;;1.85;1.60;;;8.30;99.90;;;7.61;100.00;95238.78;4942830;28;20504;-57
2022/11/17 06:38:54;;;;;;;1.80;1.52;;;8.30;99.90;;;7.51;100.00;95235.00;4946878;28;20093;-58
2022/11/17 06:41:20;;;;;;;5.43;1.80;;;8.20;99.90;;;7.47;100.00;95244.84;4947333;28;20050;-58
2022/11/17 06:43:46;;;;;;;2.38;1.50;;;8.10;99.90;;;7.40;100.00;95243.50;4949509;28;20054;-57
2022/11/17 06:46:11;;;;;;;3.38;1.60;;;8.10;99.90;;;7.40;100.00;95252.22;4943774;28;20066;-57
2022/11/17 06:48:37;;;;;;;3.15;1.85;;;8.10;99.90;;;7.45;100.00;95265.06;4947648;28;20043;-57
2022/11/17 06:51:04;;;;;;;3.72;1.65;;;8.10;99.90;;;7.58;100.00;95259.94;4948748;28;20046;-57
2022/11/17 06:53:31;;;;;;;2.95;1.60;;;8.20;99.90;;;7.69;100.00;95254.88;4945706;28;20031;-57
2022/11/17 06:56:06;;;;;;;2.33;1.48;;;8.30;99.90;;;7.79;100.00;95250.78;4944863;28;20050;-57
2022/11/17 06:58:32;;;;;;;2.63;1.40;;;8.40;99.90;;;7.87;100.00;95233.72;4943380;28;20371;-57
2022/11/17 07:01:02;;;;;;;2.47;1.50;;;8.50;99.90;;;7.96;100.00;95243.66;4941206;28;20411;-57
2022/11/17 07:03:28;;;;;;;2.95;1.30;;;8.60;99.90;;;7.96;100.00;95257.63;4944570;28;20034;-57
2022/11/17 07:05:58;;;;;;;1.70;1.13;;;8.60;99.90;;;8.01;100.00;95252.09;4946193;28;20097;-57
2022/11/17 07:08:24;;;;;;;2.10;1.17;;;8.60;99.90;;;8.03;100.00;95243.19;4945025;28;20035;-57
2022/11/17 07:10:53;;;;;;;1.60;1.15;;;8.70;99.90;;;8.08;100.00;95227.16;4948261;28;20057;-57
2022/11/17 07:13:23;;;;;;;1.58;1.05;;;8.70;99.90;;;8.10;100.00;95230.53;4944666;28;20030;-57
2022/11/17 07:15:50;;;;;;;1.40;1.00;;;8.70;99.90;;;8.10;100.00;95243.66;4945875;28;20035;-57
2022/11/17 07:18:18;;;;;;;2.50;1.73;;;8.70;99.90;;;8.07;100.00;95246.47;4949163;28;20038;-58
2022/11/17 07:20:44;;;;;;;3.03;1.20;;;8.70;99.90;;;8.07;100.00;95245.63;4952390;28;20038;-58
2022/11/17 07:23:10;;;;;;;2.70;1.20;;;8.70;99.90;;;8.11;100.00;95247.13;4954578;28;20026;-58
2022/11/17 07:25:36;;;;;;;3.10;1.23;;;8.70;99.90;;;8.18;100.00;95248.44;4948471;28;20136;-57
2022/11/17 07:28:03;;;;;;;2.25;1.30;;;8.80;99.90;;;8.24;100.00;95234.94;4949841;28;20034;-57
2022/11/17 07:30:28;;;;;;;2.90;1.20;;;8.90;99.90;;;8.34;100.00;95243.06;4947307;28;20042;-57
2022/11/17 07:32:54;;;;;;;3.83;1.50;;;9.00;99.90;;;8.47;100.00;95244.03;4947830;28;20022;-57
2022/11/17 07:35:20;;;;;;;3.30;1.42;;;9.10;99.90;;;8.62;100.00;95242.22;4947696;28;20039;-57
2022/11/17 07:37:45;;;;;;;2.67;1.30;;;9.20;99.90;;;8.74;100.00;95235.31;4946451;28;20046;-57
2022/11/17 07:40:11;;;;;;;3.83;1.70;;;9.30;99.90;;;8.83;100.00;95234.75;4942942;28;20097;-57
2022/11/17 07:42:37;;;;;;;2.90;1.50;;;9.50;99.90;;;8.88;100.00;95226.53;4947332;28;20031;-57
2022/11/17 07:45:03;;;;;;;2.08;1.38;;;9.50;99.90;;;8.94;100.00;95226.16;4949572;28;20110;-57
2022/11/17 07:47:29;;;;;;;2.78;1.20;;;9.60;99.90;;;8.89;100.00;95228.25;4953123;28;20038;-56
2022/11/17 07:49:54;;;;;;;2.70;1.52;;;9.50;99.90;;;8.82;100.00;95240.09;4946925;28;20351;-57
2022/11/17 07:52:20;;;;;;;2.17;1.40;;;9.50;99.90;;;8.79;100.00;95225.34;4950654;28;20528;-57
2022/11/17 07:54:46;;;;;;;1.95;0.88;;;9.40;99.90;;;8.83;100.00;95231.25;4953278;28;20031;-57
2022/11/17 07:57:12;;;;;;;2.78;1.17;;;9.50;99.90;;;8.94;100.00;95232.25;4952862;28;20030;-57
2022/11/17 07:59:38;;;;;;;3.28;1.20;;;9.60;99.90;;;9.05;100.00;95231.56;4949703;28;20039;-58
2022/11/17 08:02:04;;;;;;;2.60;1.17;;;9.70;99.90;;;9.16;100.00;95236.09;4955902;28;20035;-57
2022/11/17 08:04:30;;;;;;;3.22;1.33;;;9.80;99.90;;;9.30;100.00;95233.41;4951731;28;20030;-58
2022/11/17 08:06:55;;;;;;;2.97;0.95;;;9.90;99.90;;;9.34;100.00;95232.25;4945575;28;20022;-57
2022/11/17 08:09:21;;;;;;;3.22;1.20;;;10.00;99.90;;;9.35;100.00;95239.22;4952762;28;20401;-58
2022/11/17 08:11:47;;;;;;;2.60;1.00;;;9.90;99.90;;;9.36;100.00;95247.94;4952996;28;20193;-57
2022/11/17 08:14:13;;;;;;;4.90;1.27;;;10.00;99.90;;;9.42;100.00;95247.56;4950421;28;20034;-58
2022/11/17 08:16:38;;;;;;;2.90;0.98;;;10.00;99.90;;;9.52;100.00;95245.97;4950702;28;20654;-58
2022/11/17 08:19:05;;;;;;;2.00;0.90;;;10.10;99.90;;;9.69;100.00;95260.63;4954136;28;20026;-58
2022/11/17 08:21:31;;;;;;;2.95;0.80;;;10.30;99.90;;;9.86;100.00;95248.13;4947284;28;20086;-58
2022/11/17 08:23:56;;;;;;;2.60;0.70;;;10.40;99.90;;;9.95;100.00;95239.56;4950950;28;20041;-58
2022/11/17 08:26:24;;;;;;;3.50;0.80;;;10.60;99.90;;;10.06;100.00;95247.56;4949948;28;20034;-58
2022/11/17 08:28:49;;;;;;;4.15;0.70;;;10.60;99.90;;;10.16;100.00;95252.19;4953411;28;20066;-58
2022/11/17 08:31:15;;;;;;;1.55;0.57;;;10.80;99.90;;;10.25;100.00;95256.84;4953280;28;20031;-57
2022/11/17 08:33:41;;;;;;;4.03;0.85;;;10.80;99.90;;;10.31;100.00;95245.91;4949867;28;20035;-58
2022/11/17 08:36:07;;;;;;;1.58;0.60;;;10.90;99.90;;;10.34;100.00;95240.41;4942512;28;20126;-57
2022/11/17 08:38:33;;;;;;;1.00;0.50;;;11.00;99.90;;;10.42;100.00;95242.50;4954046;28;20031;-57
2022/11/17 08:41:03;;;;;;;3.92;0.80;;;11.00;99.90;;;10.44;100.00;95245.88;4945677;28;20038;-58
2022/11/17 08:43:29;;;;;;;2.88;0.70;;;11.00;99.90;;;10.41;100.00;95244.31;4954144;28;20404;-58
2022/11/17 08:45:55;;;;;;;1.65;0.68;;;11.00;99.90;;;10.38;100.00;95252.41;4949819;28;20070;-58
2022/11/17 08:48:21;;;;;;;2.97;0.73;;;10.90;99.90;;;10.29;100.00;95258.31;4948693;28;20042;-57
2022/11/17 08:50:47;;;;;;;1.02;0.60;;;10.90;99.90;;;10.23;100.00;95262.22;4948718;28;20111;-58
2022/11/17 08:53:20;;;;;;;1.20;0.50;;;10.80;99.90;;;10.09;100.00;95271.06;4966568;28;20039;-58
2022/11/17 08:55:46;;;;;;;2.53;0.57;;;10.70;99.90;;;9.99;100.00;95274.44;4946992;28;20039;-58
2022/11/17 08:58:12;;;;;;;2.85;0.70;;;10.60;99.90;;;9.97;100.00;95274.53;4950776;28;20469;-59
2022/11/17 09:00:39;;;;;;;2.55;0.47;;;10.50;99.90;;;9.93;100.00;95280.97;4954740;28;20035;-57
2022/11/17 09:03:07;;;;;;;0.73;0.45;;;10.50;99.90;;;9.98;100.00;95267.47;4946764;28;20023;-57
2022/11/17 09:05:40;;;;;;;2.20;0.40;;;10.50;99.90;;;10.01;100.00;95270.75;4950993;28;20035;-57
2022/11/17 09:08:07;;;;;;;3.33;0.68;;;10.60;99.90;;;10.11;100.00;95279.69;4948050;28;20562;-57
2022/11/17 09:10:35;;;;;;;0.90;0.50;;;10.60;99.90;;;10.18;100.00;95292.47;4949636;28;20039;-57
2022/11/17 09:13:01;;;;;;;2.33;0.70;;;10.70;99.90;;;10.34;100.00;95292.25;4949617;28;20277;-57
2022/11/17 09:15:27;;;;;;;2.30;0.40;;;10.80;99.90;;;10.36;100.00;95295.66;4949789;28;20039;-57
2022/11/17 09:17:52;;;;;;;1.05;0.35;;;10.90;99.90;;;10.48;100.00;95284.22;4949845;28;20117;-57
2022/11/17 09:20:19;;;;;;;2.65;0.60;;;11.00;99.90;;;10.53;100.00;95289.19;4950296;28;21464;-57
2022/11/17 09:22:45;;;;;;;3.10;0.52;;;11.10;99.90;;;10.73;100.00;95298.31;4949896;28;20042;-57
2022/11/17 09:25:12;;;;;;;1.17;0.43;;;11.30;99.90;;;10.83;100.00;95288.81;4952656;28;20050;-56
2022/11/17 09:27:37;;;;;;;1.45;0.47;;;11.40;99.90;;;10.97;100.00;95295.72;4953276;28;20035;-57
2022/11/17 09:30:04;;;;;;;0.82;0.40;;;11.50;99.90;;;11.06;100.00;95303.81;4951860;28;20043;-57
2022/11/17 09:32:30;;;;;;;1.77;0.57;;;11.60;99.90;;;11.19;100.00;95303.75;4946696;28;21475;-57
2022/11/17 09:34:55;;;;;;;3.55;0.55;;;11.80;99.90;;;11.34;100.00;95312.38;4951709;28;20035;-57
2022/11/17 09:37:21;;;;;;;1.33;0.50;;;11.90;99.90;;;11.46;100.00;95308.78;4939779;28;20533;-57
2022/11/17 09:39:47;;;;;;;1.83;0.30;;;12.10;99.90;;;11.65;100.00;95316.22;4973829;23;20034;-43
2022/11/17 09:42:17;;;;;;;1.77;0.60;;;12.20;99.90;;;11.71;100.00;95327.28;4967596;28;20026;-46
2022/11/17 09:45:27;;;;;;;2.72;0.70;;;12.30;99.90;;;11.79;100.00;95331.03;4971106;28;20087;-46
2022/11/17 09:48:01;;;;;;;1.77;0.40;;;12.40;99.90;;;11.80;100.00;95330.06;4964041;28;20331;-47
2022/11/17 09:50:33;;;;;;;0.90;0.40;;;12.40;99.90;;;11.77;100.00;95327.66;4960376;28;20048;-47
2022/11/17 09:53:35;;;;;;;2.15;0.60;;;12.40;99.90;;;11.74;100.00;95313.84;4964532;28;20110;-45
2022/11/17 09:56:06;;;;;;;4.70;0.90;;;12.30;99.90;;;11.65;100.00;95318.00;4962646;28;20957;-46
2022/11/17 09:58:36;;;;;;;2.17;0.80;;;12.30;99.90;;;11.62;100.00;95328.78;4956429;28;20086;-45
2022/11/17 10:01:03;;;;;;;3.42;0.90;;;12.20;99.90;;;11.57;100.00;95325.66;4952421;28;20113;-46
2022/11/17 10:03:34;;;;;;;2.90;0.85;;;12.20;99.90;;;11.51;100.00;95328.75;4955105;28;20047;-44
2022/11/17 10:06:05;;;;;;;3.53;0.65;;;12.10;99.90;;;11.48;100.00;95328.97;4958850;28;20441;-47
2022/11/17 10:09:10;;;;;;;2.38;0.70;;;12.00;99.90;;;11.51;100.00;95334.03;4961924;28;20264;-45
2022/11/17 10:11:39;;;;;;;2.40;0.68;;;12.10;99.90;;;11.56;100.00;95332.72;4954822;28;20043;-47
2022/11/17 10:14:12;;;;;;;2.13;0.70;;;12.20;99.90;;;11.60;100.00;95341.28;4959438;28;20042;-44
2022/11/17 10:16:42;;;;;;;5.05;0.90;;;12.20;99.90;;;11.54;100.00;95337.28;4957402;28;20030;-44
2022/11/17 10:19:26;;;;;;;2.45;0.70;;;12.20;99.90;;;11.61;100.00;95340.28;4959760;28;20027;-46
2022/11/17 10:22:00;;;;;;;2.70;0.55;;;12.20;99.90;;;11.58;100.00;95325.53;4949421;28;20034;-44
2022/11/17 10:24:37;;;;;;;5.40;1.17;;;12.20;99.90;;;11.53;100.00;95330.31;4959591;28;20046;-46
2022/11/17 10:27:26;;;;;;;3.75;0.77;;;12.10;99.90;;;11.53;100.00;95338.22;4961062;28;20467;-48
2022/11/17 10:30:18;;;;;;;2.17;0.73;;;12.10;99.90;;;11.54;100.00;95329.38;4959873;28;20039;-47
2022/11/17 10:32:55;;;;;;;2.93;0.90;;;12.20;99.90;;;11.50;100.00;95329.69;4949537;28;20559;-44
2022/11/17 10:35:31;;;;;;;5.82;1.00;;;12.10;99.90;;;11.50;100.00;95341.09;4957986;28;20039;-47
2022/11/17 10:38:14;;;;;;;2.58;0.80;;;12.10;99.90;;;11.67;100.00;95333.75;4959734;28;20081;-45
2022/11/17 10:40:40;;;;;;;2.63;0.98;;;12.20;99.90;;;11.62;100.00;95340.19;4954030;28;20034;-47
2022/11/17 10:43:12;;;;;;;3.17;0.90;;;12.20;99.90;;;11.67;100.00;95344.31;4959142;28;20022;-44
2022/11/17 10:45:45;;;;;;;6.65;0.90;;;12.30;99.90;;;11.67;100.00;95347.78;4949588;28;21360;-47
2022/11/17 10:48:25;;;;;;;3.28;1.00;;;12.30;99.90;;;11.75;100.00;95352.47;4957984;28;20031;-48
2022/11/17 10:51:01;;;;;;;2.35;1.00;;;12.30;99.90;;;11.79;100.00;95336.31;4960495;28;20130;-48
2022/11/17 10:53:33;;;;;;;7.43;1.33;;;12.40;99.90;;;11.82;100.00;95338.69;4964805;28;20027;-48
2022/11/17 10:56:03;;;;;;;3.65;1.00;;;12.40;99.90;;;11.87;100.00;95346.28;4960643;28;20961;-47
2022/11/17 10:58:31;;;;;;;3.88;0.98;;;12.50;99.90;;;12.06;100.00;95339.66;4955815;28;20039;-48
2022/11/17 11:01:03;;;;;;;3.63;1.02;;;12.60;99.90;;;12.07;100.00;95328.97;4951828;28;20585;-48
2022/11/17 11:03:34;;;;;;;2.67;0.80;;;12.60;99.90;;;11.94;99.70;95323.78;4945358;28;20034;-45